createdAt,value
2018-03-22T00:00:58.164Z,20.40
2018-03-22T00:03:27.238Z,19.47
2018-03-22T00:05:55.836Z,14.60
2018-03-22T00:08:24.287Z,17.73
2018-03-22T00:10:52.900Z,17.87
2018-03-22T00:13:21.575Z,17.10
2018-03-22T00:15:50.432Z,16.60
2018-03-22T00:18:19.446Z,17.60
2018-03-22T00:20:48.625Z,21.70
2018-03-22T00:23:17.789Z,21.03
2018-03-22T00:25:46.340Z,20.07
2018-03-22T00:28:15.583Z,22.83
2018-03-22T00:30:44.101Z,22.07
2018-03-22T00:33:12.553Z,16.80
2018-03-22T00:35:41.148Z,15.70
2018-03-22T00:38:09.811Z,21.23
2018-03-22T00:40:38.879Z,20.90
2018-03-22T00:43:07.805Z,16.00
2018-03-22T00:45:36.324Z,21.67
2018-03-22T00:48:04.881Z,20.20
2018-03-22T00:50:33.425Z,17.20
2018-03-22T00:53:02.140Z,18.13
2018-03-22T00:55:30.736Z,18.83
2018-03-22T00:57:59.338Z,17.90
2018-03-22T01:00:28.009Z,18.60
2018-03-22T01:02:56.710Z,17.33
2018-03-22T01:05:25.268Z,15.83
2018-03-22T01:07:54.282Z,18.90
2018-03-22T01:10:22.797Z,17.47
2018-03-22T01:12:51.713Z,24.07
2018-03-22T01:15:23.262Z,18.90
2018-03-22T01:17:51.868Z,20.90
2018-03-22T01:20:20.504Z,20.60
2018-03-22T01:22:48.965Z,19.50
2018-03-22T01:25:18.153Z,22.80
2018-03-22T01:27:46.710Z,22.27
2018-03-22T01:30:24.046Z,17.77
2018-03-22T01:32:52.457Z,17.27
2018-03-22T01:35:21.269Z,19.50
2018-03-22T01:37:49.922Z,16.87
2018-03-22T01:40:18.450Z,22.77
2018-03-22T01:42:47.100Z,17.53
2018-03-22T01:45:15.762Z,18.23
2018-03-22T01:47:44.281Z,20.23
2018-03-22T01:50:12.732Z,18.63
2018-03-22T01:52:50.369Z,17.93
2018-03-22T01:55:19.478Z,23.80
2018-03-22T01:57:48.025Z,17.17
2018-03-22T02:00:16.518Z,17.90
2018-03-22T02:02:44.969Z,22.23
2018-03-22T02:05:13.768Z,18.00
2018-03-22T02:07:42.616Z,17.93
2018-03-22T02:10:11.445Z,19.23
2018-03-22T02:12:40.022Z,17.07
2018-03-22T02:15:08.906Z,20.70
2018-03-22T02:17:37.468Z,19.17
2018-03-22T02:20:06.146Z,21.90
2018-03-22T02:22:35.044Z,21.07
2018-03-22T02:25:03.808Z,23.20
2018-03-22T02:27:32.282Z,19.77
2018-03-22T02:30:00.760Z,23.60
2018-03-22T02:32:29.497Z,20.80
2018-03-22T02:34:58.200Z,22.67
2018-03-22T02:37:26.862Z,15.60
2018-03-22T02:39:55.380Z,18.57
2018-03-22T02:42:24.070Z,22.87
2018-03-22T02:44:52.728Z,23.03
2018-03-22T02:47:21.230Z,23.00
2018-03-22T02:49:49.649Z,24.60
2018-03-22T02:52:18.385Z,19.37
2018-03-22T02:54:47.045Z,23.07
2018-03-22T02:57:15.526Z,25.10
2018-03-22T02:59:43.994Z,25.73
2018-03-22T03:02:13.281Z,21.43
2018-03-22T03:04:41.716Z,15.10
2018-03-22T03:07:10.666Z,20.60
2018-03-22T03:09:39.260Z,23.00
2018-03-22T03:12:07.936Z,18.20
2018-03-22T03:14:36.524Z,21.20
2018-03-22T03:17:05.445Z,19.90
2018-03-22T03:19:34.226Z,16.40
2018-03-22T03:22:03.091Z,20.93
2018-03-22T03:24:31.775Z,21.80
2018-03-22T03:27:00.595Z,19.40
2018-03-22T03:29:29.465Z,21.20
2018-03-22T03:31:57.968Z,18.40
2018-03-22T03:34:26.598Z,20.70
2018-03-22T03:36:55.123Z,23.67
2018-03-22T03:39:23.548Z,20.10
2018-03-22T03:41:52.176Z,25.77
2018-03-22T03:44:21.426Z,21.17
2018-03-22T03:46:50.088Z,23.30
2018-03-22T03:49:18.774Z,22.50
2018-03-22T03:51:47.226Z,26.73
2018-03-22T03:54:15.704Z,21.73
2018-03-22T03:56:44.155Z,17.87
2018-03-22T03:59:12.729Z,22.70
2018-03-22T04:01:41.589Z,27.87
2018-03-22T04:04:10.396Z,19.60
2018-03-22T04:06:38.865Z,25.23
2018-03-22T04:09:07.497Z,24.17
2018-03-22T04:11:36.048Z,26.00
2018-03-22T04:14:04.771Z,21.57
2018-03-22T04:16:33.795Z,32.10
2018-03-22T04:19:02.589Z,25.23
2018-03-22T04:21:31.184Z,26.50
2018-03-22T04:23:59.812Z,23.60
2018-03-22T04:26:28.374Z,21.70
2018-03-22T04:28:56.986Z,23.03
2018-03-22T04:31:25.602Z,25.00
2018-03-22T04:33:54.213Z,25.20
2018-03-22T04:36:22.849Z,21.50
2018-03-22T04:38:51.728Z,25.77
2018-03-22T04:41:20.113Z,22.93
2018-03-22T04:43:48.798Z,25.53
2018-03-22T04:46:17.317Z,35.33
2018-03-22T04:48:46.000Z,27.23
2018-03-22T04:51:14.894Z,27.33
2018-03-22T04:53:43.489Z,25.80
2018-03-22T04:56:12.179Z,29.53
2018-03-22T04:58:40.823Z,28.23
2018-03-22T05:04:04.444Z,22.70
2018-03-22T05:06:32.850Z,27.60
2018-03-22T05:09:01.310Z,25.70
2018-03-22T05:11:29.644Z,24.17
2018-03-22T05:13:57.909Z,28.40
2018-03-22T05:16:26.398Z,25.30
2018-03-22T05:19:01.563Z,25.73
2018-03-22T05:21:30.056Z,27.57
2018-03-22T05:23:58.480Z,25.27
2018-03-22T05:26:26.803Z,39.57
2018-03-22T05:28:55.133Z,27.40
2018-03-22T05:31:23.455Z,28.27
2018-03-22T05:33:51.732Z,26.00
2018-03-22T05:36:20.020Z,30.90
2018-03-22T05:38:48.388Z,25.83
2018-03-22T05:41:16.884Z,29.77
2018-03-22T05:43:45.149Z,34.77
2018-03-22T05:46:13.440Z,35.90
2018-03-22T05:48:41.898Z,29.10
2018-03-22T05:51:10.286Z,32.90
2018-03-22T05:53:38.560Z,30.33
2018-03-22T05:56:06.923Z,34.33
2018-03-22T05:58:35.336Z,28.83
2018-03-22T06:01:03.708Z,30.57
2018-03-22T06:03:31.961Z,27.90
2018-03-22T06:06:00.272Z,33.80
2018-03-22T06:08:28.585Z,33.37
2018-03-22T06:10:57.042Z,28.30
2018-03-22T06:13:25.452Z,28.67
2018-03-22T06:15:53.950Z,29.30
2018-03-22T06:18:22.339Z,28.27
2018-03-22T06:20:50.710Z,33.20
2018-03-22T06:23:19.072Z,32.60
2018-03-22T06:25:47.385Z,34.00
2018-03-22T06:28:15.917Z,27.10
2018-03-22T06:30:44.212Z,37.53
2018-03-22T06:33:12.460Z,35.23
2018-03-22T06:35:40.973Z,32.33
2018-03-22T06:38:09.442Z,32.13
2018-03-22T06:40:37.749Z,37.80
2018-03-22T06:43:06.109Z,34.20
2018-03-22T06:45:34.465Z,35.80
2018-03-22T06:48:02.946Z,32.17
2018-03-22T06:50:31.233Z,35.03
2018-03-22T06:52:59.673Z,36.43
2018-03-22T06:55:28.132Z,34.83
2018-03-22T06:57:56.675Z,38.03
2018-03-22T07:00:25.257Z,46.30
2018-03-22T07:02:53.559Z,33.23
2018-03-22T07:05:23.856Z,31.50
2018-03-22T07:07:52.147Z,34.73
2018-03-22T07:10:20.555Z,30.60
2018-03-22T07:12:48.896Z,37.33
2018-03-22T07:15:17.191Z,31.47
2018-03-22T07:17:45.492Z,38.50
2018-03-22T07:20:13.900Z,31.23
2018-03-22T07:22:42.187Z,33.63
2018-03-22T07:25:10.488Z,32.17
2018-03-22T07:27:38.871Z,34.80
2018-03-22T07:30:07.175Z,32.60
2018-03-22T07:32:35.452Z,33.73
2018-03-22T07:35:03.776Z,35.07
2018-03-22T07:37:32.153Z,30.20
2018-03-22T07:40:00.491Z,29.07
2018-03-22T07:42:28.879Z,42.20
2018-03-22T07:44:57.341Z,39.90
2018-03-22T07:47:25.716Z,37.67
2018-03-22T07:49:54.001Z,40.80
2018-03-22T07:52:22.351Z,39.17
2018-03-22T07:54:50.668Z,36.40
2018-03-22T07:57:19.062Z,29.93
2018-03-22T07:59:47.383Z,35.80
2018-03-22T08:02:15.825Z,32.73
2018-03-22T08:04:44.125Z,31.00
2018-03-22T08:07:12.496Z,23.63
2018-03-22T08:09:41.173Z,31.33
2018-03-22T08:12:09.616Z,25.57
2018-03-22T08:14:38.136Z,28.73
2018-03-22T08:17:06.511Z,77.50
2018-03-22T08:19:34.840Z,40.20
2018-03-22T08:22:03.131Z,30.27
2018-03-22T08:24:31.491Z,26.67
2018-03-22T08:26:59.889Z,30.07
2018-03-22T08:29:28.372Z,30.27
2018-03-22T08:31:56.671Z,26.73
2018-03-22T08:34:24.948Z,31.87
2018-03-22T08:36:53.246Z,26.03
2018-03-22T08:39:21.524Z,32.37
2018-03-22T08:41:49.857Z,32.70
2018-03-22T08:44:18.510Z,31.33
2018-03-22T08:46:46.808Z,35.70
2018-03-22T08:49:15.065Z,33.83
2018-03-22T08:51:43.385Z,32.30
2018-03-22T08:54:11.660Z,34.50
2018-03-22T08:56:39.968Z,34.27
2018-03-22T08:59:08.338Z,42.73
2018-03-22T09:01:36.637Z,35.17
2018-03-22T09:04:04.915Z,34.17
2018-03-22T09:06:33.370Z,42.87
2018-03-22T09:09:01.681Z,39.50
2018-03-22T09:11:30.109Z,39.97
2018-03-22T09:13:58.962Z,37.33
2018-03-22T09:16:27.248Z,43.33
2018-03-22T09:18:55.532Z,39.77
2018-03-22T09:21:23.816Z,41.17
2018-03-22T09:23:52.117Z,43.13
2018-03-22T09:26:20.473Z,42.80
2018-03-22T09:28:48.764Z,41.23
2018-03-22T09:31:17.216Z,43.70
2018-03-22T09:33:45.476Z,41.50
2018-03-22T09:36:13.973Z,39.63
2018-03-22T09:38:42.308Z,51.60
2018-03-22T09:41:10.729Z,46.47
2018-03-22T09:43:39.033Z,47.20
2018-03-22T09:46:07.340Z,45.90
2018-03-22T09:48:35.787Z,56.87
2018-03-22T09:51:04.187Z,50.27
2018-03-22T09:53:32.532Z,45.07
2018-03-22T09:56:01.028Z,51.50
2018-03-22T09:58:29.420Z,50.10
2018-03-22T10:00:57.744Z,53.27
2018-03-22T10:03:26.174Z,59.77
2018-03-22T10:05:54.553Z,58.90
2018-03-22T10:08:22.855Z,60.43
2018-03-22T10:10:51.283Z,66.20
2018-03-22T10:13:19.929Z,57.93
2018-03-22T10:15:48.350Z,57.47
2018-03-22T10:18:16.645Z,67.57
2018-03-22T10:20:45.187Z,54.10
2018-03-22T10:23:13.614Z,60.90
2018-03-22T10:25:41.931Z,60.20
2018-03-22T10:28:10.204Z,61.47
2018-03-22T10:30:38.505Z,64.13
2018-03-22T10:33:06.858Z,61.53
2018-03-22T10:35:36.125Z,57.63
2018-03-22T10:38:04.389Z,62.83
2018-03-22T10:40:32.677Z,62.80
2018-03-22T10:43:01.268Z,60.77
2018-03-22T10:45:29.698Z,55.67
2018-03-22T10:47:58.020Z,58.03
2018-03-22T10:50:26.597Z,59.83
2018-03-22T10:52:54.887Z,60.30
2018-03-22T10:55:23.216Z,61.07
2018-03-22T10:57:51.644Z,64.00
2018-03-22T11:00:24.112Z,68.17
2018-03-22T11:02:54.208Z,66.27
2018-03-22T11:05:22.526Z,66.57
2018-03-22T11:07:51.476Z,64.27
2018-03-22T11:10:19.943Z,58.03
2018-03-22T11:12:48.256Z,62.23
2018-03-22T11:15:16.569Z,61.60
2018-03-22T11:17:44.920Z,61.43
2018-03-22T11:20:13.196Z,58.13
2018-03-22T11:22:41.453Z,65.00
2018-03-22T11:25:09.725Z,65.27
2018-03-22T11:27:38.323Z,59.20
2018-03-22T11:30:06.852Z,60.13
2018-03-22T11:32:35.299Z,60.60
2018-03-22T11:35:03.620Z,71.50
2018-03-22T11:37:31.889Z,58.23
2018-03-22T11:40:00.144Z,55.80
2018-03-22T11:42:28.585Z,60.47
2018-03-22T11:44:57.081Z,65.83
2018-03-22T11:47:25.366Z,59.70
2018-03-22T11:49:53.648Z,62.23
2018-03-22T11:52:22.020Z,59.47
2018-03-22T11:54:50.322Z,58.57
2018-03-22T11:57:18.609Z,55.43
2018-03-22T11:59:47.257Z,55.37
2018-03-22T12:02:15.579Z,60.83
2018-03-22T12:04:43.882Z,55.57
2018-03-22T12:07:12.432Z,60.17
2018-03-22T12:09:40.897Z,58.20
2018-03-22T12:12:09.231Z,57.77
2018-03-22T12:14:37.568Z,61.40
2018-03-22T12:17:05.944Z,56.07
2018-03-22T12:19:34.532Z,62.47
2018-03-22T12:22:02.904Z,56.30
2018-03-22T12:24:31.166Z,63.67
2018-03-22T12:27:00.545Z,57.07
2018-03-22T12:29:28.821Z,54.13
2018-03-22T12:31:57.149Z,57.27
2018-03-22T12:34:25.596Z,54.60
2018-03-22T12:36:53.942Z,58.07
2018-03-22T12:39:22.431Z,56.13
2018-03-22T12:41:50.881Z,56.67
2018-03-22T12:44:19.307Z,55.50
2018-03-22T12:46:47.603Z,62.77
2018-03-22T12:49:16.099Z,55.73
2018-03-22T12:51:44.525Z,56.70
2018-03-22T12:54:12.841Z,50.80
2018-03-22T12:56:41.447Z,50.37
2018-03-22T12:59:10.006Z,52.77
2018-03-22T13:01:38.492Z,49.80
2018-03-22T13:04:06.879Z,47.87
2018-03-22T13:06:35.617Z,53.90
2018-03-22T13:09:04.756Z,47.67
2018-03-22T13:11:33.135Z,49.00
2018-03-22T13:14:01.588Z,51.27
2018-03-22T13:16:29.903Z,51.30
2018-03-22T13:18:58.339Z,50.07
2018-03-22T13:21:26.637Z,49.90
2018-03-22T13:23:54.937Z,47.10
2018-03-22T13:26:23.234Z,54.33
2018-03-22T13:28:51.971Z,51.33
2018-03-22T13:31:20.398Z,53.87
2018-03-22T13:33:48.789Z,47.33
2018-03-22T13:36:17.125Z,45.57
2018-03-22T13:38:45.402Z,42.93
2018-03-22T13:41:13.796Z,42.37
2018-03-22T13:43:42.148Z,39.90
2018-03-22T13:46:10.508Z,40.03
2018-03-22T13:48:39.049Z,39.20
2018-03-22T13:51:07.403Z,43.13
2018-03-22T13:53:35.653Z,41.40
2018-03-22T13:56:03.984Z,40.17
2018-03-22T13:58:32.238Z,39.10
2018-03-22T14:01:00.617Z,36.93
2018-03-22T14:03:29.566Z,33.97
2018-03-22T14:05:57.980Z,41.23
2018-03-22T14:08:26.296Z,39.93
2018-03-22T14:10:54.643Z,34.90
2018-03-22T14:13:23.001Z,37.43
2018-03-22T14:15:51.542Z,40.93
2018-03-22T14:18:20.118Z,34.30
2018-03-22T14:20:48.647Z,35.67
2018-03-22T14:23:17.208Z,33.70
2018-03-22T14:25:45.509Z,35.50
2018-03-22T14:28:13.958Z,36.40
2018-03-22T14:30:42.359Z,33.23
2018-03-22T14:33:10.769Z,35.73
2018-03-22T14:35:39.427Z,34.40
2018-03-22T14:38:08.256Z,32.37
2018-03-22T14:40:36.969Z,37.30
2018-03-22T14:43:05.455Z,40.53
2018-03-22T14:45:34.175Z,32.60
2018-03-22T14:48:02.675Z,32.20
2018-03-22T14:50:31.140Z,29.20
2018-03-22T14:52:59.402Z,30.47
2018-03-22T14:55:27.747Z,37.97
2018-03-22T14:57:56.077Z,29.10
2018-03-22T15:00:24.476Z,52.33
2018-03-22T15:02:53.057Z,33.90
2018-03-22T15:05:21.412Z,36.47
2018-03-22T15:07:49.875Z,32.00
2018-03-22T15:10:18.153Z,30.43
2018-03-22T15:12:46.490Z,33.10
2018-03-22T15:15:15.042Z,28.80
2018-03-22T15:17:43.548Z,29.47
2018-03-22T15:20:11.889Z,30.13
2018-03-22T15:22:40.279Z,29.67
2018-03-22T15:25:08.644Z,30.33
2018-03-22T15:27:36.958Z,33.23
2018-03-22T15:30:05.454Z,29.57
2018-03-22T15:32:33.882Z,30.70
2018-03-22T15:35:02.265Z,33.47
2018-03-22T15:37:30.804Z,29.00
2018-03-22T15:39:59.110Z,29.13
2018-03-22T15:42:27.563Z,32.53
2018-03-22T15:44:55.969Z,31.67
2018-03-22T15:47:24.341Z,33.23
2018-03-22T15:49:52.775Z,33.93
2018-03-22T15:52:21.344Z,31.40
2018-03-22T15:54:49.906Z,31.83
2018-03-22T15:57:18.325Z,32.17
2018-03-22T16:01:07.901Z,31.33
2018-03-22T16:03:36.172Z,32.67
2018-03-22T16:06:04.468Z,30.07
2018-03-22T16:08:32.949Z,33.27
2018-03-22T16:14:00.248Z,28.87
2018-03-22T16:16:28.672Z,30.30
2018-03-22T16:18:57.125Z,34.37
2018-03-22T16:21:25.448Z,35.03
2018-03-22T16:23:53.888Z,35.87
2018-03-22T16:26:22.276Z,34.60
2018-03-22T16:28:50.860Z,31.83
2018-03-22T16:31:19.439Z,35.90
2018-03-22T16:33:48.106Z,37.23
2018-03-22T16:36:16.599Z,39.20
2018-03-22T16:38:45.913Z,35.20
2018-03-22T16:41:14.370Z,37.87
2018-03-22T16:43:42.720Z,41.20
2018-03-22T16:46:11.032Z,35.57
2018-03-22T16:48:39.488Z,35.33
2018-03-22T16:51:07.825Z,35.13
2018-03-22T16:53:36.452Z,39.60
2018-03-22T16:56:04.779Z,34.80
2018-03-22T16:58:33.204Z,34.67
2018-03-22T17:01:01.480Z,36.57
2018-03-22T17:03:29.967Z,37.63
2018-03-22T17:05:58.468Z,37.63
2018-03-22T17:08:26.925Z,34.50
2018-03-22T17:10:55.205Z,38.27
2018-03-22T17:13:23.473Z,35.50
2018-03-22T17:15:51.790Z,35.10
2018-03-22T17:18:20.108Z,35.07
2018-03-22T17:20:48.430Z,39.37
2018-03-22T17:23:16.720Z,34.27
2018-03-22T17:25:45.100Z,33.47
2018-03-22T17:28:13.345Z,34.10
2018-03-22T17:30:41.813Z,35.80
2018-03-22T17:33:10.277Z,36.47
2018-03-22T17:35:38.610Z,35.17
2018-03-22T17:38:07.096Z,35.83
2018-03-22T17:40:35.581Z,37.27
2018-03-22T17:43:03.882Z,41.70
2018-03-22T17:45:32.520Z,37.60
2018-03-22T17:48:00.876Z,39.50
2018-03-22T17:50:29.249Z,37.50
2018-03-22T17:52:57.767Z,41.10
2018-03-22T17:55:26.125Z,44.70
2018-03-22T17:57:54.600Z,40.70
2018-03-22T18:00:23.308Z,38.77
2018-03-22T18:02:51.952Z,40.13
2018-03-22T18:05:20.535Z,45.00
2018-03-22T18:07:49.808Z,46.13
2018-03-22T18:10:18.159Z,43.27
2018-03-22T18:12:46.641Z,41.97
2018-03-22T18:15:14.942Z,42.90
2018-03-22T18:17:43.259Z,48.37
2018-03-22T18:20:11.875Z,44.50
2018-03-22T18:22:40.353Z,42.93
2018-03-22T18:25:08.646Z,50.43
2018-03-22T18:27:36.965Z,44.57
2018-03-22T18:30:05.408Z,48.97
2018-03-22T18:32:33.808Z,46.00
2018-03-22T18:35:02.293Z,47.40
2018-03-22T18:37:30.645Z,43.03
2018-03-22T18:39:58.909Z,40.90
2018-03-22T18:42:27.564Z,42.20
2018-03-22T18:44:56.095Z,40.00
2018-03-22T18:47:24.415Z,39.20
2018-03-22T18:49:52.724Z,40.97
2018-03-22T18:52:21.290Z,38.97
2018-03-22T18:54:49.552Z,39.17
2018-03-22T18:58:20.927Z,40.30
2018-03-22T19:00:49.336Z,41.00
2018-03-22T19:03:17.604Z,42.40
2018-03-22T19:05:46.305Z,40.07
2018-03-22T19:08:14.621Z,40.10
2018-03-22T19:10:43.028Z,42.10
2018-03-22T19:13:11.454Z,41.47
2018-03-22T19:15:39.848Z,45.20
2018-03-22T19:18:08.181Z,43.20
2018-03-22T19:20:36.928Z,48.00
2018-03-22T19:23:05.249Z,46.27
2018-03-22T19:25:34.173Z,46.70
2018-03-22T19:28:02.712Z,47.67
2018-03-22T19:30:31.078Z,46.47
2018-03-22T19:32:59.527Z,47.23
2018-03-22T19:35:28.089Z,42.53
2018-03-22T19:37:56.472Z,42.03
2018-03-22T19:40:24.776Z,43.93
2018-03-22T19:42:53.133Z,43.63
2018-03-22T19:45:21.523Z,47.20
2018-03-22T19:47:49.904Z,45.70
2018-03-22T19:50:18.726Z,45.70
2018-03-22T19:52:47.032Z,47.70
2018-03-22T19:55:15.396Z,48.33
2018-03-22T19:57:43.657Z,44.87
2018-03-22T20:00:12.052Z,48.90
2018-03-22T20:02:40.399Z,45.73
2018-03-22T20:05:08.873Z,53.07
2018-03-22T20:07:37.308Z,45.90
2018-03-22T20:10:05.804Z,51.13
2018-03-22T20:12:34.516Z,45.40
2018-03-22T20:15:02.941Z,50.40
2018-03-22T20:17:31.637Z,50.77
2018-03-22T20:19:59.967Z,69.23
2018-03-22T20:22:28.331Z,57.20
2018-03-22T20:24:56.664Z,49.27
2018-03-22T20:27:25.121Z,54.40
2018-03-22T20:29:53.547Z,58.93
2018-03-22T20:32:22.044Z,50.90
2018-03-22T20:34:50.343Z,53.37
2018-03-22T20:37:18.748Z,50.40
2018-03-22T20:39:47.187Z,53.17
2018-03-22T20:42:15.754Z,58.83
2018-03-22T20:44:44.120Z,50.87
2018-03-22T20:47:12.480Z,53.00
2018-03-22T20:49:41.039Z,58.80
2018-03-22T20:52:09.458Z,54.13
2018-03-22T20:54:37.825Z,51.30
2018-03-22T20:57:06.138Z,51.70
2018-03-22T20:59:34.464Z,54.23
2018-03-22T21:02:02.890Z,52.40
2018-03-22T21:04:31.211Z,52.87
2018-03-22T21:06:59.693Z,49.70
2018-03-22T21:09:28.015Z,52.17
2018-03-22T21:11:56.560Z,51.77
2018-03-22T21:14:24.947Z,48.37
2018-03-22T21:16:53.312Z,54.50
2018-03-22T21:19:21.764Z,48.07
2018-03-22T21:21:50.136Z,50.73
2018-03-22T21:24:18.744Z,48.33
2018-03-22T21:26:47.103Z,51.37
2018-03-22T21:29:15.612Z,50.57
2018-03-22T21:31:44.120Z,46.80
2018-03-22T21:34:12.388Z,49.63
2018-03-22T21:36:40.679Z,47.30
2018-03-22T21:39:09.164Z,51.97
2018-03-22T21:41:53.424Z,48.57
2018-03-22T21:44:21.888Z,43.23
2018-03-22T21:46:50.232Z,45.17
2018-03-22T21:49:19.132Z,43.70
2018-03-22T21:51:56.400Z,42.97
2018-03-22T21:54:24.700Z,38.50
2018-03-22T21:56:53.012Z,37.67
2018-03-22T21:59:21.332Z,36.23
2018-03-22T22:01:49.619Z,37.17
2018-03-22T22:04:17.900Z,34.20
2018-03-22T22:06:46.487Z,33.17
2018-03-22T22:09:14.793Z,34.70
2018-03-22T22:11:43.322Z,35.00
2018-03-22T22:14:11.684Z,35.40
2018-03-22T22:16:40.022Z,34.87
2018-03-22T22:19:08.369Z,36.23
2018-03-22T22:21:36.680Z,33.83
2018-03-22T22:24:05.222Z,30.50
2018-03-22T22:26:33.637Z,33.80
2018-03-22T22:29:01.963Z,34.47
2018-03-22T22:31:30.376Z,29.87
2018-03-22T22:33:58.685Z,30.37
2018-03-22T22:36:27.032Z,35.03
2018-03-22T22:38:55.512Z,34.77
2018-03-22T22:41:23.900Z,31.77
2018-03-22T22:43:52.270Z,30.97
2018-03-22T22:46:20.583Z,32.57
2018-03-22T22:48:49.112Z,32.17
2018-03-22T22:51:17.495Z,32.60
2018-03-22T22:53:45.896Z,31.87
2018-03-22T22:56:14.440Z,32.23
2018-03-22T22:58:42.809Z,33.23
2018-03-22T23:01:11.143Z,33.90
2018-03-22T23:03:39.713Z,31.63
2018-03-22T23:06:08.116Z,29.03
2018-03-22T23:08:36.502Z,27.87
2018-03-22T23:11:04.878Z,33.80
2018-03-22T23:13:34.465Z,31.37
2018-03-22T23:16:02.869Z,32.27
2018-03-22T23:18:31.252Z,29.07
2018-03-22T23:20:59.677Z,30.17
2018-03-22T23:23:28.075Z,31.83
2018-03-22T23:25:56.424Z,32.20
2018-03-22T23:28:25.280Z,30.17
2018-03-22T23:30:53.658Z,29.20
2018-03-22T23:33:22.035Z,35.00
2018-03-22T23:35:50.529Z,33.23
2018-03-22T23:38:19.019Z,29.23
2018-03-22T23:40:47.435Z,31.17
2018-03-22T23:43:15.826Z,29.50
2018-03-22T23:45:44.233Z,32.97
2018-03-22T23:48:12.670Z,34.87
2018-03-22T23:50:41.088Z,33.20
2018-03-22T23:53:09.466Z,32.60
2018-03-22T23:55:38.016Z,33.07
2018-03-22T23:58:06.349Z,34.23
